Time;durP1;ratioP1;P1;durP2;ratioP2;P2;SDS_P1;SDS_P2;PMS_P1;PMS_P2;Temp;Humidity;BMP_temperature;BMP_pressure;BME280_temperature;BME280_humidity;BME280_pressure;Samples;Min_cycle;Max_cycle;Signal;HPM_P1;HPM_P2
2023/02/26 00:00:14;;;;;;;5.35;2.38;;;0.80;99.90;;;;;;4974654;28;20028;-49
2023/02/26 00:03:00;;;;;;;4.85;2.20;;;0.90;99.90;;;;;;4975475;28;20088;-48
2023/02/26 00:05:46;;;;;;;5.53;2.63;;;0.90;99.90;;;;;;4974788;28;20523;-50
2023/02/26 00:08:32;;;;;;;5.15;2.60;;;0.90;99.90;;;;;;4972797;28;20054;-51
2023/02/26 00:11:19;;;;;;;3.55;2.50;;;0.90;99.90;;;;;;4974148;28;20031;-52
2023/02/26 00:14:08;;;;;;;5.90;2.53;;;0.90;99.90;;;;;;4974139;28;20597;-50
2023/02/26 00:17:15;;;;;;;3.60;2.22;;;0.80;99.90;;;;;;4967897;28;20125;-52
2023/02/26 00:20:03;;;;;;;11.23;2.85;;;0.70;99.90;;;;;;4967938;28;20067;-53
2023/02/26 00:22:49;;;;;;;4.10;2.13;;;0.80;99.90;;;;;;4974082;28;20034;-51
2023/02/26 00:25:35;;;;;;;3.33;2.05;;;0.60;99.90;;;;;;4973602;28;20039;-51
2023/02/26 00:28:21;;;;;;;4.60;2.40;;;0.60;99.90;;;;;;4974323;28;20070;-51
2023/02/26 00:31:08;;;;;;;5.53;2.28;;;0.60;99.90;;;;;;4955375;28;20110;-51
2023/02/26 00:33:56;;;;;;;7.68;2.47;;;0.50;99.90;;;;;;4955621;28;20503;-50
2023/02/26 00:37:06;;;;;;;6.13;2.50;;;0.50;99.90;;;;;;4972449;28;20051;-51
2023/02/26 00:39:55;;;;;;;4.22;2.35;;;0.50;99.90;;;;;;4971024;28;20081;-48
2023/02/26 00:42:42;;;;;;;7.10;2.28;;;0.50;99.90;;;;;;4973327;28;20050;-51
2023/02/26 00:45:28;;;;;;;5.50;2.40;;;0.50;99.90;;;;;;4972506;28;20105;-51
2023/02/26 00:48:44;;;;;;;4.30;2.00;;;0.50;99.90;;;;;;4973031;28;20484;-49
2023/02/26 00:51:33;;;;;;;5.65;2.97;;;0.30;99.90;;;;;;4963104;28;20039;-48
2023/02/26 00:54:24;;;;;;;3.90;2.20;;;0.20;99.90;;;;;;4973726;28;20027;-48
2023/02/26 00:57:09;;;;;;;7.38;2.70;;;0.30;99.90;;;;;;4973543;28;20037;-48
2023/02/26 00:59:55;;;;;;;5.03;2.40;;;0.20;99.90;;;;;;4973078;28;20101;-48
2023/02/26 01:02:42;;;;;;;4.07;2.30;;;0.20;99.90;;;;;;4973804;28;20072;-48
2023/02/26 01:05:29;;;;;;;4.53;2.38;;;0.20;99.90;;;;;;4973384;28;20501;-47
2023/02/26 01:08:23;;;;;;;7.55;2.85;;;0.10;99.90;;;;;;4972368;28;20027;-49
2023/02/26 01:11:09;;;;;;;5.22;2.60;;;0.00;99.90;;;;;;4974332;28;20027;-53
2023/02/26 01:13:55;;;;;;;8.27;2.65;;;-0.10;99.90;;;;;;4973065;28;20035;-47
2023/02/26 01:17:15;;;;;;;5.22;2.63;;;-0.10;99.90;;;;;;4972769;28;20042;-48
2023/02/26 01:20:09;;;;;;;3.72;2.47;;;-0.10;99.90;;;;;;4973901;28;20121;-47
2023/02/26 01:23:01;;;;;;;7.32;2.75;;;0.00;99.90;;;;;;4973417;28;20074;-51
2023/02/26 01:25:49;;;;;;;5.10;2.50;;;-0.10;99.90;;;;;;4954152;28;20488;-52
2023/02/26 01:28:35;;;;;;;6.30;3.20;;;-0.20;99.90;;;;;;4958571;28;20399;-50
2023/02/26 01:31:38;;;;;;;5.32;2.60;;;-0.20;99.90;;;;;;4972754;28;20697;-48
2023/02/26 01:34:33;;;;;;;5.82;3.10;;;-0.20;99.90;;;;;;4972772;28;20031;-51
2023/02/26 01:37:19;;;;;;;5.43;2.72;;;-0.20;99.90;;;;;;4971918;28;20408;-48
2023/02/26 01:40:23;;;;;;;5.25;2.78;;;-0.20;99.90;;;;;;4971047;28;20063;-49
2023/02/26 01:43:15;;;;;;;7.65;3.00;;;-0.20;99.90;;;;;;4972596;28;20027;-51
2023/02/26 01:46:21;;;;;;;8.40;3.70;;;-0.20;99.90;;;;;;4953285;28;20027;-50
2023/02/26 01:49:14;;;;;;;5.43;2.53;;;-0.10;99.90;;;;;;4961078;28;20032;-52
2023/02/26 01:52:02;;;;;;;7.45;4.18;;;0.00;99.90;;;;;;4972463;28;20030;-53
2023/02/26 01:54:48;;;;;;;7.07;3.08;;;0.10;99.90;;;;;;4972304;28;20121;-50
2023/02/26 01:57:34;;;;;;;5.50;3.05;;;0.10;99.90;;;;;;4973594;28;20030;-54
2023/02/26 02:00:20;;;;;;;4.65;2.90;;;0.00;99.90;;;;;;4972554;28;20038;-52
2023/02/26 02:03:06;;;;;;;5.68;2.70;;;0.00;99.90;;;;;;4972180;28;20519;-49
2023/02/26 02:06:15;;;;;;;7.22;3.17;;;-0.10;99.90;;;;;;4971657;28;20038;-54
2023/02/26 02:09:03;;;;;;;6.57;3.10;;;0.00;99.90;;;;;;4973701;28;20533;-51
2023/02/26 02:12:05;;;;;;;6.25;3.80;;;0.00;99.90;;;;;;4972622;28;20538;-55
2023/02/26 02:15:13;;;;;;;5.57;3.15;;;-0.10;99.90;;;;;;4972635;28;20043;-54
2023/02/26 02:18:15;;;;;;;4.93;2.83;;;0.00;99.90;;;;;;4953904;29;20032;-53
2023/02/26 02:21:13;;;;;;;8.63;3.30;;;0.00;99.90;;;;;;4958316;28;20154;-55
2023/02/26 02:24:25;;;;;;;6.15;3.10;;;-0.20;99.90;;;;;;4973291;28;20023;-53
2023/02/26 02:27:20;;;;;;;7.75;3.42;;;0.00;99.90;;;;;;4972609;28;20085;-53
2023/02/26 02:30:23;;;;;;;8.82;3.80;;;-0.10;99.90;;;;;;4973377;28;20027;-55
2023/02/26 02:33:17;;;;;;;7.40;3.25;;;-0.20;99.90;;;;;;4973243;28;20031;-51
2023/02/26 02:36:10;;;;;;;5.82;3.35;;;-0.10;99.90;;;;;;4972307;28;20403;-51
2023/02/26 02:39:07;;;;;;;5.72;3.50;;;-0.10;99.90;;;;;;4972030;28;20102;-52
2023/02/26 02:42:07;;;;;;;7.07;3.50;;;-0.30;99.90;;;;;;4971723;28;20495;-47
2023/02/26 02:45:03;;;;;;;11.60;5.45;;;-0.30;99.90;;;;;;4972266;28;20031;-55
2023/02/26 02:47:57;;;;;;;6.72;3.80;;;-0.30;99.90;;;;;;4971668;28;20034;-57
2023/02/26 02:51:10;;;;;;;12.55;5.20;;;-0.30;99.90;;;;;;4972530;28;20105;-51
2023/02/26 02:54:16;;;;;;;8.00;4.18;;;-0.30;99.90;;;;;;4971464;28;20027;-50
2023/02/26 02:57:06;;;;;;;6.72;3.00;;;-0.30;99.90;;;;;;4974306;28;20082;-51
2023/02/26 03:00:15;;;;;;;8.77;3.63;;;-0.20;99.90;;;;;;4974835;28;20102;-53
2023/02/26 03:03:22;;;;;;;5.50;3.13;;;-0.10;99.90;;;;;;4975898;28;20019;-53
2023/02/26 03:06:08;;;;;;;7.43;3.38;;;-0.20;99.90;;;;;;4975251;28;20073;-55
2023/02/26 03:08:55;;;;;;;4.63;2.90;;;-0.30;99.90;;;;;;4974432;28;20049;-54
2023/02/26 03:11:41;;;;;;;7.38;2.90;;;-0.30;99.90;;;;;;4975818;28;20052;-52
2023/02/26 03:14:28;;;;;;;6.53;2.50;;;-0.20;99.90;;;;;;4976681;28;20149;-53
2023/02/26 03:17:14;;;;;;;6.15;2.75;;;-0.20;99.90;;;;;;4975739;28;20419;-50
2023/02/26 03:20:06;;;;;;;6.68;2.88;;;-0.20;99.90;;;;;;4975767;28;20082;-55
2023/02/26 03:23:19;;;;;;;4.95;2.60;;;-0.30;99.90;;;;;;4975105;28;20567;-51
2023/02/26 03:26:14;;;;;;;3.17;2.85;;;-0.30;99.90;;;;;;4975801;28;20034;-51
2023/02/26 03:29:15;;;;;;;9.65;2.85;;;-0.30;99.90;;;;;;4976718;28;20031;-50
2023/02/26 03:32:13;;;;;;;7.38;3.70;;;-0.30;99.90;;;;;;4975687;28;20066;-53
2023/02/26 03:35:12;;;;;;;6.80;2.75;;;-0.20;99.90;;;;;;4975268;28;20407;-50
2023/02/26 03:38:03;;;;;;;5.03;2.47;;;-0.20;99.90;;;;;;4974969;28;20053;-53
2023/02/26 03:41:00;;;;;;;3.13;2.33;;;-0.30;99.90;;;;;;4974526;28;20042;-51
2023/02/26 03:44:07;;;;;;;5.60;2.40;;;-0.30;99.90;;;;;;4975597;28;20027;-53
2023/02/26 03:47:05;;;;;;;9.57;2.90;;;-0.30;99.90;;;;;;4974837;28;20490;-52
2023/02/26 03:50:09;;;;;;;8.32;2.72;;;-0.40;99.90;;;;;;4975037;28;20039;-51
2023/02/26 03:52:58;;;;;;;6.32;2.85;;;-0.40;99.90;;;;;;4973492;28;20563;-53
2023/02/26 03:56:14;;;;;;;3.50;2.53;;;-0.40;99.90;;;;;;4974937;28;20436;-51
2023/02/26 03:59:00;;;;;;;5.63;2.50;;;-0.30;99.90;;;;;;4973841;28;20118;-50
2023/02/26 04:01:55;;;;;;;8.68;2.63;;;-0.30;99.90;;;;;;4974521;28;20039;-50
2023/02/26 04:05:00;;;;;;;5.27;2.47;;;-0.30;99.90;;;;;;4961809;28;20027;-53
2023/02/26 04:07:48;;;;;;;6.53;3.13;;;-0.40;99.90;;;;;;4957663;28;20778;-50
2023/02/26 04:10:42;;;;;;;3.30;2.40;;;-0.40;99.90;;;;;;4954969;29;20587;-49
2023/02/26 04:13:28;;;;;;;5.63;2.30;;;-0.40;99.90;;;;;;4962153;28;20407;-54
2023/02/26 04:16:15;;;;;;;4.75;2.28;;;-0.40;99.90;;;;;;4974072;28;20109;-52
2023/02/26 04:19:00;;;;;;;5.70;3.00;;;-0.40;99.90;;;;;;4973773;28;20128;-49
2023/02/26 04:21:46;;;;;;;5.82;2.80;;;-0.40;99.90;;;;;;4974754;28;20022;-51
2023/02/26 04:24:32;;;;;;;5.00;2.50;;;-0.40;99.90;;;;;;4974490;28;20554;-48
2023/02/26 04:27:18;;;;;;;6.25;2.40;;;-0.30;99.90;;;;;;4974647;28;20057;-52
2023/02/26 04:30:05;;;;;;;5.18;2.20;;;-0.40;99.90;;;;;;4974337;28;20446;-50
2023/02/26 04:32:51;;;;;;;4.72;2.50;;;-0.40;99.90;;;;;;4971499;28;20049;-50
2023/02/26 04:35:37;;;;;;;5.88;3.00;;;-0.30;99.90;;;;;;4954758;29;20066;-50
2023/02/26 04:38:23;;;;;;;4.85;2.30;;;-0.30;99.90;;;;;;4960212;28;20035;-52
2023/02/26 04:41:09;;;;;;;3.38;2.22;;;-0.30;99.90;;;;;;4973508;28;20101;-49
2023/02/26 04:43:55;;;;;;;5.30;2.80;;;-0.30;99.90;;;;;;4955708;28;20027;-51
2023/02/26 04:46:41;;;;;;;4.90;2.65;;;-0.20;99.90;;;;;;4956943;28;20137;-51
2023/02/26 04:49:27;;;;;;;4.63;2.67;;;-0.30;99.90;;;;;;4974487;28;20035;-52
2023/02/26 04:52:13;;;;;;;5.93;2.50;;;-0.20;99.90;;;;;;4974147;28;20026;-53
2023/02/26 04:54:59;;;;;;;5.75;2.65;;;-0.20;99.90;;;;;;4973981;28;20030;-50
2023/02/26 04:57:45;;;;;;;7.90;2.95;;;-0.30;99.90;;;;;;4972118;28;20034;-57
2023/02/26 05:00:31;;;;;;;3.30;2.13;;;-0.30;99.90;;;;;;4973996;28;20114;-52
2023/02/26 05:03:17;;;;;;;6.05;2.35;;;-0.40;99.90;;;;;;4947741;28;20034;-49
2023/02/26 05:06:03;;;;;;;4.82;2.47;;;-0.40;99.90;;;;;;4954397;29;20539;-52
2023/02/26 05:08:49;;;;;;;5.40;2.20;;;-0.30;99.90;;;;;;4971205;28;20062;-50
2023/02/26 05:11:35;;;;;;;3.50;2.00;;;-0.30;99.90;;;;;;4957194;28;20036;-50
2023/02/26 05:14:21;;;;;;;5.95;2.72;;;-0.30;99.90;;;;;;4954117;29;20408;-54
2023/02/26 05:17:08;;;;;;;7.13;2.35;;;-0.20;99.90;;;;;;4966941;28;20039;-50
2023/02/26 05:19:54;;;;;;;3.97;2.22;;;-0.20;99.90;;;;;;4973237;28;20111;-49
2023/02/26 05:22:40;;;;;;;4.60;2.45;;;-0.30;99.90;;;;;;4971715;28;20078;-50
2023/02/26 05:25:26;;;;;;;2.97;2.50;;;-0.30;99.90;;;;;;4973065;28;20035;-49
2023/02/26 05:28:12;;;;;;;7.85;2.60;;;-0.20;99.90;;;;;;4972510;28;20411;-50
2023/02/26 05:30:58;;;;;;;4.68;2.20;;;-0.20;99.90;;;;;;4972540;28;20407;-51
2023/02/26 05:33:44;;;;;;;6.68;2.75;;;-0.30;99.90;;;;;;4973194;28;20031;-53
2023/02/26 05:36:30;;;;;;;3.35;2.25;;;-0.20;99.90;;;;;;4972246;28;20102;-51
2023/02/26 05:39:16;;;;;;;3.83;2.10;;;-0.20;99.90;;;;;;4972177;28;20027;-51
2023/02/26 05:42:02;;;;;;;3.25;2.00;;;-0.20;99.90;;;;;;4973073;28;20455;-50
2023/02/26 05:44:48;;;;;;;5.68;2.50;;;-0.30;99.90;;;;;;4972533;28;20623;-52
2023/02/26 05:47:35;;;;;;;4.53;2.30;;;-0.30;99.90;;;;;;4972690;28;20037;-50
2023/02/26 05:50:21;;;;;;;4.40;2.00;;;-0.40;99.90;;;;;;4967018;28;20725;-56
2023/02/26 05:53:07;;;;;;;4.20;2.08;;;-0.40;99.90;;;;;;4956120;28;20035;-54
2023/02/26 05:55:53;;;;;;;4.25;2.53;;;-0.40;99.90;;;;;;4973791;28;20051;-54
2023/02/26 05:58:40;;;;;;;6.57;2.20;;;-0.30;99.90;;;;;;4971769;28;20050;-53
2023/02/26 06:01:26;;;;;;;5.13;2.50;;;-0.40;99.90;;;;;;4971604;28;20027;-55
2023/02/26 06:04:11;;;;;;;6.32;2.40;;;-0.30;99.90;;;;;;4973371;28;20023;-54
2023/02/26 06:06:57;;;;;;;4.35;2.25;;;-0.30;99.90;;;;;;4972359;28;20404;-52
2023/02/26 06:09:43;;;;;;;5.22;3.00;;;-0.30;99.90;;;;;;4970137;28;20097;-50
2023/02/26 06:12:29;;;;;;;4.43;2.92;;;-0.30;99.90;;;;;;4970548;28;20042;-49
2023/02/26 06:15:15;;;;;;;5.78;2.70;;;-0.40;99.90;;;;;;4973190;28;20105;-52
2023/02/26 06:18:01;;;;;;;4.53;2.50;;;-0.20;99.90;;;;;;4966502;28;20039;-50
2023/02/26 06:20:47;;;;;;;6.15;2.10;;;-0.20;99.90;;;;;;4952483;29;20024;-57
2023/02/26 06:23:33;;;;;;;4.07;2.10;;;-0.20;99.90;;;;;;4958275;28;20027;-50
2023/02/26 06:26:19;;;;;;;4.03;2.50;;;-0.20;99.90;;;;;;4971144;28;20031;-54
2023/02/26 06:29:05;;;;;;;4.07;2.17;;;-0.10;99.90;;;;;;4970587;28;20116;-48
2023/02/26 06:31:51;;;;;;;4.43;2.38;;;-0.10;99.90;;;;;;4935659;28;1086547;-48
2023/02/26 06:34:37;;;;;;;3.95;2.10;;;0.00;99.90;;;;;;4975342;28;20399;-54
2023/02/26 06:37:23;;;;;;;9.50;2.60;;;0.00;99.90;;;;;;4976001;28;20046;-51
2023/02/26 06:40:10;;;;;;;3.70;2.28;;;0.10;99.90;;;;;;4975540;28;20419;-49
2023/02/26 06:42:56;;;;;;;5.05;2.15;;;0.10;99.90;;;;;;4975438;28;20034;-51
2023/02/26 06:45:42;;;;;;;3.97;2.20;;;0.00;99.90;;;;;;4976719;28;20027;-53
2023/02/26 06:48:28;;;;;;;3.38;2.40;;;0.10;99.90;;;;;;4975590;28;20030;-54
2023/02/26 06:51:14;;;;;;;6.90;2.30;;;0.00;99.90;;;;;;4977124;28;20054;-52
2023/02/26 06:54:00;;;;;;;5.63;2.72;;;0.10;99.90;;;;;;4974777;28;20112;-56
2023/02/26 06:56:46;;;;;;;5.53;2.50;;;0.20;99.90;;;;;;4976072;28;20050;-50
2023/02/26 06:59:32;;;;;;;6.57;2.67;;;0.10;99.90;;;;;;4975065;28;20038;-47
2023/02/26 07:02:20;;;;;;;5.13;3.38;;;0.10;99.90;;;;;;4974856;28;20027;-51
2023/02/26 07:05:06;;;;;;;4.53;2.75;;;0.10;99.90;;;;;;4956162;29;20547;-50
2023/02/26 07:07:52;;;;;;;4.32;2.70;;;0.00;99.90;;;;;;4957427;28;20484;-48
2023/02/26 07:10:39;;;;;;;7.85;3.50;;;0.10;99.90;;;;;;4974919;28;20407;-50
2023/02/26 07:13:25;;;;;;;4.40;3.15;;;0.20;99.90;;;;;;4975273;28;20023;-50
2023/02/26 07:16:11;;;;;;;6.18;2.63;;;0.20;99.90;;;;;;4974949;28;20111;-54
2023/02/26 07:18:57;;;;;;;4.70;2.50;;;0.20;99.90;;;;;;4976798;28;20496;-48
2023/02/26 07:21:43;;;;;;;5.95;2.60;;;0.20;99.90;;;;;;4976867;28;20454;-56
2023/02/26 07:24:29;;;;;;;6.93;2.53;;;0.20;99.90;;;;;;4975964;28;20031;-55
2023/02/26 07:27:14;;;;;;;3.80;2.50;;;0.40;99.90;;;;;;4982434;28;20023;-54
2023/02/26 07:30:01;;;;;;;6.00;3.33;;;0.30;99.90;;;;;;4982500;28;20022;-52
2023/02/26 07:32:47;;;;;;;6.03;2.42;;;0.40;99.90;;;;;;4962070;29;20067;-54
2023/02/26 07:35:33;;;;;;;4.07;2.55;;;0.30;99.90;;;;;;4978385;28;20037;-55
2023/02/26 07:38:20;;;;;;;4.32;2.63;;;0.40;99.90;;;;;;4980265;28;20046;-55
2023/02/26 07:41:06;;;;;;;4.20;2.40;;;0.30;99.90;;;;;;4977111;28;20027;-52
2023/02/26 07:43:51;;;;;;;5.72;3.25;;;0.40;99.90;;;;;;4976157;28;20023;-51
2023/02/26 07:46:37;;;;;;;6.63;2.58;;;0.30;99.90;;;;;;4976524;28;20027;-51
2023/02/26 07:49:24;;;;;;;5.60;2.80;;;0.30;99.90;;;;;;4976489;28;20026;-56
2023/02/26 07:52:10;;;;;;;4.40;2.78;;;0.40;99.90;;;;;;4976877;28;20056;-54
2023/02/26 07:54:56;;;;;;;5.43;2.80;;;0.40;99.90;;;;;;4976782;28;20526;-54
2023/02/26 07:57:42;;;;;;;3.88;2.63;;;0.30;99.90;;;;;;4976274;28;20058;-56
2023/02/26 08:00:28;;;;;;;6.05;2.70;;;0.30;99.90;;;;;;4973568;28;20023;-57
2023/02/26 08:03:14;;;;;;;5.57;2.30;;;0.30;99.90;;;;;;4975780;28;20109;-54
2023/02/26 08:06:00;;;;;;;4.75;2.58;;;0.30;99.90;;;;;;4974663;28;20023;-53
2023/02/26 08:08:46;;;;;;;5.30;2.58;;;0.40;99.90;;;;;;4962377;28;20492;-56
2023/02/26 08:11:35;;;;;;;4.07;2.47;;;0.50;99.90;;;;;;4975005;28;20038;-51
2023/02/26 08:14:21;;;;;;;4.25;2.50;;;0.50;99.90;;;;;;4974875;28;20037;-52
2023/02/26 08:17:08;;;;;;;3.53;2.28;;;0.60;99.90;;;;;;4971871;28;20042;-54
2023/02/26 08:19:54;;;;;;;5.68;2.83;;;0.60;99.90;;;;;;4976097;28;20074;-53
2023/02/26 08:22:40;;;;;;;4.90;2.50;;;0.70;99.90;;;;;;4957627;29;20500;-57
2023/02/26 08:25:28;;;;;;;6.18;2.70;;;0.70;99.90;;;;;;4966922;28;20054;-60
2023/02/26 08:28:14;;;;;;;4.80;2.70;;;0.80;99.90;;;;;;4977579;28;20138;-53
2023/02/26 08:31:01;;;;;;;5.15;3.17;;;0.70;99.90;;;;;;4974379;28;20484;-51
2023/02/26 08:33:47;;;;;;;2.75;2.10;;;0.80;99.90;;;;;;4973520;28;20133;-52
2023/02/26 08:36:33;;;;;;;5.25;2.60;;;0.80;99.90;;;;;;4973331;28;20030;-52
2023/02/26 08:39:19;;;;;;;5.57;2.80;;;0.80;99.90;;;;;;4974843;28;20034;-51
2023/02/26 08:42:06;;;;;;;5.95;2.78;;;0.70;99.90;;;;;;4974328;28;20028;-52
2023/02/26 08:44:52;;;;;;;4.70;2.45;;;0.80;99.90;;;;;;4974629;28;20073;-47
2023/02/26 08:47:40;;;;;;;3.22;2.30;;;0.80;99.90;;;;;;4973894;28;20027;-49
2023/02/26 08:50:26;;;;;;;7.72;2.53;;;1.00;99.90;;;;;;4974365;28;20510;-49
2023/02/26 08:53:12;;;;;;;3.30;2.20;;;1.00;99.90;;;;;;4976742;28;20023;-52
2023/02/26 08:55:58;;;;;;;4.07;2.30;;;1.00;99.90;;;;;;4976717;28;20085;-55
2023/02/26 08:58:44;;;;;;;5.13;2.47;;;1.00;99.90;;;;;;4976582;28;20026;-56
2023/02/26 09:01:30;;;;;;;3.55;2.30;;;1.10;99.90;;;;;;4978069;28;20396;-56
2023/02/26 09:04:16;;;;;;;2.60;2.15;;;1.20;99.90;;;;;;4975740;28;20027;-54
2023/02/26 09:07:03;;;;;;;4.10;2.53;;;1.10;99.90;;;;;;4977207;28;20118;-53
2023/02/26 09:09:49;;;;;;;3.78;2.75;;;1.10;99.90;;;;;;4977417;28;20034;-52
2023/02/26 09:12:35;;;;;;;4.43;2.45;;;1.30;99.90;;;;;;4977322;28;20654;-52
2023/02/26 09:15:21;;;;;;;4.22;2.38;;;1.40;99.90;;;;;;4976683;28;20086;-55
2023/02/26 09:18:14;;;;;;;5.20;2.50;;;1.40;99.90;;;;;;4962065;28;20035;-52
2023/02/26 09:21:00;;;;;;;4.78;2.45;;;1.40;99.90;;;;;;4976218;28;20023;-53
2023/02/26 09:23:46;;;;;;;3.83;2.53;;;1.50;99.90;;;;;;4975683;28;20030;-56
2023/02/26 09:26:32;;;;;;;5.22;3.05;;;1.60;99.90;;;;;;4989109;28;20033;-54
2023/02/26 09:29:18;;;;;;;6.85;3.05;;;1.40;99.90;;;;;;4974794;28;20516;-54
2023/02/26 09:32:07;;;;;;;6.85;3.00;;;1.40;99.90;;;;;;4974656;28;20498;-54
2023/02/26 09:34:53;;;;;;;5.55;2.72;;;1.40;99.90;;;;;;4974363;28;20619;-54
2023/02/26 09:37:39;;;;;;;3.72;2.22;;;1.60;99.90;;;;;;4974626;28;20158;-54
2023/02/26 09:40:43;;;;;;;5.18;2.50;;;1.50;99.90;;;;;;4975259;28;20031;-54
2023/02/26 09:43:48;;;;;;;4.50;2.70;;;1.70;99.90;;;;;;4974584;28;20023;-55
2023/02/26 09:46:46;;;;;;;6.63;2.70;;;1.70;99.90;;;;;;4974791;28;20070;-56
2023/02/26 09:50:00;;;;;;;4.15;2.20;;;1.70;99.90;;;;;;4974420;28;20491;-53
2023/02/26 09:53:04;;;;;;;3.03;2.13;;;1.80;99.90;;;;;;4974762;28;20031;-57
2023/02/26 09:55:52;;;;;;;2.55;1.80;;;1.80;99.90;;;;;;4976366;28;20019;-56
2023/02/26 09:58:40;;;;;;;5.68;2.17;;;1.60;99.90;;;;;;4975936;28;20058;-54
2023/02/26 10:01:47;;;;;;;3.50;1.98;;;1.70;99.90;;;;;;4974897;28;20492;-57
2023/02/26 10:04:55;;;;;;;5.07;3.30;;;1.80;99.90;;;;;;4972809;28;20034;-53
2023/02/26 10:07:57;;;;;;;3.58;2.10;;;1.80;99.90;;;;;;4972526;28;20047;-57
2023/02/26 10:11:01;;;;;;;2.10;1.80;;;1.80;99.90;;;;;;4955102;28;20487;-56
2023/02/26 10:13:53;;;;;;;3.33;2.25;;;2.00;99.90;;;;;;4954037;29;20027;-53
2023/02/26 10:16:45;;;;;;;4.30;2.00;;;2.10;99.90;;;;;;4953507;28;20493;-55
2023/02/26 10:19:37;;;;;;;3.20;1.92;;;2.20;99.70;;;;;;4953544;29;20123;-57
2023/02/26 10:22:38;;;;;;;3.05;1.85;;;2.10;99.70;;;;;;4954251;28;20045;-55
2023/02/26 10:25:31;;;;;;;2.88;2.10;;;2.10;99.50;;;;;;4953526;29;20066;-57
2023/02/26 10:28:32;;;;;;;4.07;2.22;;;2.20;99.20;;;;;;4953702;29;20402;-55
2023/02/26 10:31:52;;;;;;;3.47;2.08;;;2.20;98.20;;;;;;4953037;29;20106;-55
2023/02/26 10:34:52;;;;;;;3.17;2.20;;;2.20;97.60;;;;;;4934323;29;20031;-55
2023/02/26 10:37:57;;;;;;;8.70;3.83;;;2.10;98.20;;;;;;4951919;28;20385;-54
2023/02/26 10:40:58;;;;;;;3.03;1.63;;;2.40;97.90;;;;;;4952484;28;20035;-54
2023/02/26 10:43:54;;;;;;;4.47;1.88;;;2.50;97.30;;;;;;4952629;28;20020;-55
2023/02/26 10:46:40;;;;;;;4.38;2.80;;;2.40;97.40;;;;;;4952644;29;20047;-56
2023/02/26 10:49:45;;;;;;;6.50;3.15;;;2.40;98.50;;;;;;4952965;29;20031;-57
2023/02/26 10:52:34;;;;;;;3.22;2.28;;;2.50;98.70;;;;;;4952503;28;20027;-58
2023/02/26 10:55:51;;;;;;;3.08;1.90;;;2.40;98.30;;;;;;4952226;29;20082;-56
2023/02/26 10:58:37;;;;;;;;;;;2.40;98.40;;;;;;4953013;29;20049;-58
2023/02/26 11:01:24;;;;;;;;;;;2.40;98.50;;;;;;4952602;28;19911;-55
2023/02/26 11:04:22;;;;;;;3.10;2.00;;;2.30;98.40;;;;;;4952490;29;20014;-59
2023/02/26 11:07:08;;;;;;;3.25;2.22;;;2.30;98.90;;;;;;4953644;28;20031;-58
2023/02/26 11:09:55;;;;;;;5.10;1.67;;;2.30;98.70;;;;;;4952730;28;20129;-56
2023/02/26 11:12:41;;;;;;;3.70;2.13;;;2.30;98.90;;;;;;4952899;28;20038;-57
2023/02/26 11:15:28;;;;;;;5.25;2.53;;;2.40;99.30;;;;;;4952374;29;20035;-56
2023/02/26 11:18:19;;;;;;;2.90;1.40;;;2.60;98.20;;;;;;4953967;28;20404;-56
2023/02/26 11:21:07;;;;;;;4.45;1.98;;;2.50;97.90;;;;;;4956031;29;20483;-54
2023/02/26 11:24:15;;;;;;;2.05;1.58;;;2.30;98.00;;;;;;4955699;29;20032;-53
2023/02/26 11:27:04;;;;;;;2.85;1.77;;;2.30;97.70;;;;;;4956072;29;20030;-58
2023/02/26 11:29:58;;;;;;;2.60;1.65;;;2.40;98.10;;;;;;4956392;29;20031;-54
2023/02/26 11:32:48;;;;;;;5.25;2.00;;;2.50;97.60;;;;;;4956683;29;20042;-58
2023/02/26 11:35:34;;;;;;;4.78;2.30;;;2.50;97.80;;;;;;4956248;28;20042;-54
2023/02/26 11:38:25;;;;;;;4.55;2.50;;;2.50;98.00;;;;;;4956391;29;20027;-55
2023/02/26 11:41:12;;;;;;;3.38;1.63;;;2.70;97.80;;;;;;4955593;28;20027;-50
2023/02/26 11:44:06;;;;;;;3.47;2.00;;;2.60;97.80;;;;;;4957126;28;20075;-54
2023/02/26 11:46:57;;;;;;;3.58;2.20;;;3.10;97.60;;;;;;4955810;28;20031;-56
2023/02/26 11:49:54;;;;;;;4.65;2.25;;;3.40;97.80;;;;;;4955815;28;20608;-54
2023/02/26 11:52:43;;;;;;;3.13;1.95;;;3.50;96.80;;;;;;4955111;28;20456;-55
2023/02/26 11:55:34;;;;;;;5.38;2.50;;;3.40;96.40;;;;;;4954772;28;20077;-54
2023/02/26 11:58:22;;;;;;;3.58;1.98;;;3.50;96.70;;;;;;4953862;29;20118;-53
2023/02/26 12:01:12;;;;;;;3.13;2.03;;;3.40;96.90;;;;;;4956526;28;20023;-54
2023/02/26 12:04:00;;;;;;;4.25;2.20;;;3.20;97.30;;;;;;4956095;28;20030;-54
2023/02/26 12:06:49;;;;;;;6.38;2.40;;;3.30;97.70;;;;;;4954675;29;20106;-55
2023/02/26 12:09:35;;;;;;;3.50;1.98;;;3.30;98.20;;;;;;4955120;29;20023;-55
2023/02/26 12:12:46;;;;;;;3.05;1.80;;;3.10;97.20;;;;;;4955140;29;20122;-55
2023/02/26 12:15:41;;;;;;;3.53;1.92;;;3.10;97.20;;;;;;4955144;29;20031;-54
2023/02/26 12:18:53;;;;;;;3.30;2.17;;;3.20;97.60;;;;;;4954198;28;20031;-53
2023/02/26 12:22:03;;;;;;;2.75;1.77;;;3.30;97.20;;;;;;4955089;29;20026;-54
2023/02/26 12:25:27;;;;;;;2.70;2.00;;;3.40;97.10;;;;;;4954793;28;20037;-55
2023/02/26 12:28:21;;;;;;;1.58;1.48;;;3.50;96.70;;;;;;4955124;28;20034;-55
2023/02/26 12:31:18;;;;;;;4.53;1.92;;;3.40;96.10;;;;;;4954865;28;20034;-56
2023/02/26 12:34:20;;;;;;;4.57;1.98;;;3.10;96.60;;;;;;4954770;29;20031;-58
2023/02/26 12:37:29;;;;;;;3.33;1.90;;;3.00;97.30;;;;;;4954799;29;20027;-55
2023/02/26 12:40:31;;;;;;;3.15;1.60;;;3.10;97.70;;;;;;4955365;29;20035;-51
2023/02/26 12:43:37;;;;;;;3.95;2.05;;;3.00;97.00;;;;;;4953829;29;20024;-52
2023/02/26 12:46:53;;;;;;;4.43;2.03;;;3.00;97.20;;;;;;4953110;29;20169;-57
2023/02/26 12:50:05;;;;;;;4.07;2.00;;;2.90;96.90;;;;;;4954210;29;20115;-52
2023/02/26 12:52:54;;;;;;;6.68;3.15;;;3.00;96.60;;;;;;4953320;29;20043;-55
2023/02/26 12:56:22;;;;;;;5.50;3.05;;;3.40;96.90;;;;;;4954285;29;20031;-54
2023/02/26 12:59:13;;;;;;;4.70;1.90;;;3.60;95.10;;;;;;4954504;29;20504;-55
2023/02/26 13:02:26;;;;;;;4.28;1.85;;;3.90;94.70;;;;;;4953926;29;20023;-53
2023/02/26 13:05:29;;;;;;;3.00;2.25;;;4.20;94.40;;;;;;4953668;28;20019;-56
2023/02/26 13:08:39;;;;;;;3.30;1.52;;;4.30;93.30;;;;;;4967884;28;20377;-55
2023/02/26 13:11:55;;;;;;;3.72;2.20;;;4.00;93.00;;;;;;4935874;29;20186;-55
2023/02/26 13:15:14;;;;;;;4.25;2.00;;;4.00;93.80;;;;;;4953919;29;20474;-54
2023/02/26 13:18:05;;;;;;;4.30;1.80;;;3.60;94.30;;;;;;4952424;29;20034;-53
2023/02/26 13:21:10;;;;;;;4.45;2.40;;;3.40;95.00;;;;;;4952839;29;20023;-57
2023/02/26 13:24:04;;;;;;;3.97;2.10;;;3.20;95.70;;;;;;4953866;29;20028;-54
2023/02/26 13:26:52;;;;;;;3.00;1.92;;;3.00;95.70;;;;;;4952530;29;20112;-57
2023/02/26 13:30:05;;;;;;;6.55;2.20;;;3.10;95.90;;;;;;4953489;29;20110;-56
2023/02/26 13:32:54;;;;;;;4.63;2.03;;;3.20;96.10;;;;;;4951999;28;20551;-54
2023/02/26 13:35:41;;;;;;;5.25;2.05;;;3.20;96.50;;;;;;4953593;28;20023;-53
2023/02/26 13:38:51;;;;;;;2.47;2.15;;;3.20;95.90;;;;;;4952781;29;20027;-55
2023/02/26 13:41:58;;;;;;;3.28;2.03;;;3.10;95.30;;;;;;4952905;28;20031;-54
2023/02/26 13:45:26;;;;;;;6.00;2.70;;;3.00;94.90;;;;;;4955314;28;20247;-54
2023/02/26 13:48:22;;;;;;;3.33;1.67;;;3.00;95.00;;;;;;4961802;28;20039;-52
2023/02/26 13:51:22;;;;;;;4.28;1.90;;;3.00;95.20;;;;;;4951870;29;20027;-53
2023/02/26 13:54:32;;;;;;;2.33;1.60;;;3.20;95.30;;;;;;4962604;28;20034;-54
2023/02/26 13:57:36;;;;;;;3.40;2.15;;;3.30;95.20;;;;;;4972179;28;20563;-54
2023/02/26 14:00:33;;;;;;;7.05;2.40;;;3.30;94.90;;;;;;4972076;28;20108;-52
2023/02/26 14:03:25;;;;;;;2.75;1.80;;;3.20;95.50;;;;;;4971932;28;20023;-55
2023/02/26 14:06:36;;;;;;;3.70;2.20;;;3.30;96.00;;;;;;4972671;28;20101;-54
2023/02/26 14:09:25;;;;;;;4.45;2.72;;;3.20;96.90;;;;;;4972342;28;20113;-56
2023/02/26 14:12:16;;;;;;;4.10;1.80;;;3.20;96.90;;;;;;4973078;28;20530;-54
2023/02/26 14:15:12;;;;;;;3.03;1.88;;;3.60;97.10;;;;;;4972784;28;20035;-52
2023/02/26 14:18:04;;;;;;;4.28;2.00;;;4.00;96.30;;;;;;4971945;28;20031;-56
2023/02/26 14:20:52;;;;;;;4.93;2.10;;;4.40;95.40;;;;;;4953595;28;20473;-53
2023/02/26 14:23:40;;;;;;;2.90;2.15;;;4.50;95.00;;;;;;4939424;29;20045;-50
2023/02/26 14:26:31;;;;;;;3.47;2.00;;;4.60;94.70;;;;;;4952523;29;20024;-54
2023/02/26 14:29:24;;;;;;;2.85;1.98;;;4.40;95.00;;;;;;4953404;28;20107;-54
2023/02/26 14:32:12;;;;;;;4.60;2.17;;;4.40;95.00;;;;;;4952872;28;20038;-53
2023/02/26 14:35:10;;;;;;;2.80;1.92;;;4.40;94.90;;;;;;4952242;29;20050;-51
2023/02/26 14:38:19;;;;;;;3.70;2.03;;;4.40;95.10;;;;;;4951706;29;20070;-53
2023/02/26 14:41:27;;;;;;;3.58;2.10;;;4.20;95.60;;;;;;4952012;29;20074;-56
2023/02/26 14:44:20;;;;;;;5.38;1.92;;;3.90;96.30;;;;;;4952723;29;20082;-52
2023/02/26 14:47:08;;;;;;;5.30;2.42;;;3.70;96.90;;;;;;4952831;28;20050;-52
2023/02/26 14:49:59;;;;;;;3.65;2.13;;;3.70;96.90;;;;;;4954040;28;20039;-54
2023/02/26 14:52:57;;;;;;;4.15;1.67;;;3.70;96.70;;;;;;4954700;28;20035;-52
2023/02/26 14:55:46;;;;;;;4.93;2.47;;;3.70;96.50;;;;;;4962503;28;20532;-53
2023/02/26 14:58:57;;;;;;;2.83;1.88;;;3.50;97.00;;;;;;4955572;29;20039;-57
2023/02/26 15:02:17;;;;;;;4.43;2.28;;;3.30;97.40;;;;;;4956135;29;20579;-55
2023/02/26 15:05:28;;;;;;;4.68;2.50;;;3.40;97.20;;;;;;4956880;29;20062;-52
2023/02/26 15:08:56;;;;;;;5.78;2.55;;;3.30;97.20;;;;;;4955585;29;20020;-52